sensor_id;sensor_type;location;lat;lon;timestamp;pressure;altitude;pressure_sealevel;temperature;humidity
43621;BME280;29213;50.770;7.298;2023-04-19T00:02:16;101711.84;;;9.97;49.15
43621;BME280;29213;50.770;7.298;2023-04-19T00:04:43;101762.72;;;10.25;49.62
43621;BME280;29213;50.770;7.298;2023-04-19T00:07:10;101722.81;;;10.04;49.65
43621;BME280;29213;50.770;7.298;2023-04-19T00:09:35;101749.94;;;10.19;49.68
43621;BME280;29213;50.770;7.298;2023-04-19T00:12:02;101793.34;;;10.41;49.64
43621;BME280;29213;50.770;7.298;2023-04-19T00:14:27;101781.13;;;10.38;49.74
43621;BME280;29213;50.770;7.298;2023-04-19T00:16:52;101760.03;;;10.25;49.77
43621;BME280;29213;50.770;7.298;2023-04-19T00:19:18;101711.16;;;9.95;49.82
43621;BME280;29213;50.770;7.298;2023-04-19T00:21:43;101784.63;;;10.39;49.76
43621;BME280;29213;50.770;7.298;2023-04-19T00:24:08;101776.81;;;10.47;49.64
43621;BME280;29213;50.770;7.298;2023-04-19T00:26:34;101697.84;;;9.95;49.67
43621;BME280;29213;50.770;7.298;2023-04-19T00:28:59;101773.09;;;10.60;49.32
43621;BME280;29213;50.770;7.298;2023-04-19T00:31:25;101664.66;;;9.99;49.23
43621;BME280;29213;50.770;7.298;2023-04-19T00:33:50;101726.75;;;10.41;49.01
43621;BME280;29213;50.770;7.298;2023-04-19T00:36:16;101736.63;;;10.50;49.01
43621;BME280;29213;50.770;7.298;2023-04-19T00:38:41;101723.56;;;10.47;49.00
43621;BME280;29213;50.770;7.298;2023-04-19T00:41:06;101715.00;;;10.43;49.19
43621;BME280;29213;50.770;7.298;2023-04-19T00:43:32;101774.94;;;10.69;49.29
43621;BME280;29213;50.770;7.298;2023-04-19T00:45:58;101711.44;;;10.33;49.27
43621;BME280;29213;50.770;7.298;2023-04-19T00:48:24;101705.38;;;10.21;49.95
43621;BME280;29213;50.770;7.298;2023-04-19T00:50:50;101724.75;;;10.23;49.95
43621;BME280;29213;50.770;7.298;2023-04-19T00:53:15;101700.69;;;10.03;50.15
43621;BME280;29213;50.770;7.298;2023-04-19T00:55:41;101709.22;;;10.07;50.47
43621;BME280;29213;50.770;7.298;2023-04-19T00:58:07;101690.31;;;10.00;50.23
43621;BME280;29213;50.770;7.298;2023-04-19T01:00:33;101746.53;;;10.48;50.06
43621;BME280;29213;50.770;7.298;2023-04-19T01:03:00;101693.34;;;10.27;49.77
43621;BME280;29213;50.770;7.298;2023-04-19T01:05:25;101749.53;;;10.65;49.93
43621;BME280;29213;50.770;7.298;2023-04-19T01:07:51;101744.50;;;10.62;49.87
43621;BME280;29213;50.770;7.298;2023-04-19T01:10:17;101691.84;;;10.34;49.86
43621;BME280;29213;50.770;7.298;2023-04-19T01:12:42;101716.00;;;10.52;50.15
43621;BME280;29213;50.770;7.298;2023-04-19T01:15:08;101740.88;;;10.73;50.03
43621;BME280;29213;50.770;7.298;2023-04-19T01:17:34;101742.69;;;10.72;50.33
43621;BME280;29213;50.770;7.298;2023-04-19T01:20:03;101743.97;;;10.68;50.77
43621;BME280;29213;50.770;7.298;2023-04-19T01:22:33;101695.72;;;10.30;50.97
43621;BME280;29213;50.770;7.298;2023-04-19T01:24:58;101745.75;;;10.57;51.02
43621;BME280;29213;50.770;7.298;2023-04-19T01:27:24;101700.38;;;10.28;51.32
43621;BME280;29213;50.770;7.298;2023-04-19T01:29:50;101730.00;;;10.45;51.20
43621;BME280;29213;50.770;7.298;2023-04-19T01:32:15;101712.00;;;10.27;50.90
43621;BME280;29213;50.770;7.298;2023-04-19T01:34:41;101705.38;;;10.21;51.08
43621;BME280;29213;50.770;7.298;2023-04-19T01:37:07;101669.03;;;10.00;51.36
43621;BME280;29213;50.770;7.298;2023-04-19T01:39:32;101739.94;;;10.42;51.51
43621;BME280;29213;50.770;7.298;2023-04-19T01:41:57;101690.75;;;10.06;51.84
43621;BME280;29213;50.770;7.298;2023-04-19T01:44:23;101662.25;;;9.86;51.95
43621;BME280;29213;50.770;7.298;2023-04-19T01:46:48;101634.81;;;9.65;52.10
43621;BME280;29213;50.770;7.298;2023-04-19T01:49:14;101674.81;;;9.84;52.23
43621;BME280;29213;50.770;7.298;2023-04-19T01:51:40;101673.56;;;9.88;51.96
43621;BME280;29213;50.770;7.298;2023-04-19T01:54:05;101711.31;;;10.03;52.16
43621;BME280;29213;50.770;7.298;2023-04-19T01:56:31;101726.38;;;10.14;52.39
43621;BME280;29213;50.770;7.298;2023-04-19T01:58:57;101724.38;;;10.07;52.41
43621;BME280;29213;50.770;7.298;2023-04-19T02:01:22;101620.66;;;9.43;52.41
43621;BME280;29213;50.770;7.298;2023-04-19T02:03:48;101729.97;;;10.03;52.54
43621;BME280;29213;50.770;7.298;2023-04-19T02:06:13;101686.25;;;9.75;52.75
43621;BME280;29213;50.770;7.298;2023-04-19T02:08:40;101658.44;;;9.58;52.92
43621;BME280;29213;50.770;7.298;2023-04-19T02:11:10;101719.16;;;9.95;52.99
43621;BME280;29213;50.770;7.298;2023-04-19T02:13:36;101609.06;;;9.22;53.41
43621;BME280;29213;50.770;7.298;2023-04-19T02:16:01;101702.06;;;9.76;53.55
43621;BME280;29213;50.770;7.298;2023-04-19T02:18:30;101716.41;;;9.85;53.55
43621;BME280;29213;50.770;7.298;2023-04-19T02:20:57;101617.06;;;9.22;53.16
43621;BME280;29213;50.770;7.298;2023-04-19T02:23:23;101658.72;;;9.43;53.04
43621;BME280;29213;50.770;7.298;2023-04-19T02:25:48;101690.34;;;9.58;53.27
43621;BME280;29213;50.770;7.298;2023-04-19T02:28:13;101677.00;;;9.48;53.04
43621;BME280;29213;50.770;7.298;2023-04-19T02:30:39;101630.25;;;9.13;53.04
43621;BME280;29213;50.770;7.298;2023-04-19T02:33:04;101656.66;;;9.26;53.30
43621;BME280;29213;50.770;7.298;2023-04-19T02:35:29;101723.13;;;9.58;53.78
43621;BME280;29213;50.770;7.298;2023-04-19T02:37:55;101707.22;;;9.47;53.63
43621;BME280;29213;50.770;7.298;2023-04-19T02:40:20;101573.38;;;8.61;53.91
43621;BME280;29213;50.770;7.298;2023-04-19T02:42:47;101705.28;;;9.38;53.88
43621;BME280;29213;50.770;7.298;2023-04-19T02:45:12;101722.09;;;9.49;54.08
43621;BME280;29213;50.770;7.298;2023-04-19T02:47:38;101658.66;;;9.12;54.53
43621;BME280;29213;50.770;7.298;2023-04-19T02:50:03;101675.66;;;9.21;54.45
43621;BME280;29213;50.770;7.298;2023-04-19T02:52:29;101652.03;;;9.06;54.38
43621;BME280;29213;50.770;7.298;2023-04-19T02:54:54;101712.63;;;9.45;54.55
43621;BME280;29213;50.770;7.298;2023-04-19T02:57:20;101650.63;;;9.02;54.48
43621;BME280;29213;50.770;7.298;2023-04-19T02:59:45;101676.75;;;9.18;54.66
43621;BME280;29213;50.770;7.298;2023-04-19T03:02:10;101641.31;;;8.96;54.84
43621;BME280;29213;50.770;7.298;2023-04-19T03:04:36;101653.13;;;9.04;54.55
43621;BME280;29213;50.770;7.298;2023-04-19T03:07:01;101706.97;;;9.39;54.48
43621;BME280;29213;50.770;7.298;2023-04-19T03:09:27;101651.44;;;9.03;54.33
43621;BME280;29213;50.770;7.298;2023-04-19T03:11:52;101710.72;;;9.36;54.58
43621;BME280;29213;50.770;7.298;2023-04-19T03:14:17;101645.94;;;8.94;54.54
43621;BME280;29213;50.770;7.298;2023-04-19T03:16:43;101688.09;;;9.20;54.84
43621;BME280;29213;50.770;7.298;2023-04-19T03:19:09;101646.41;;;9.00;55.17
43621;BME280;29213;50.770;7.298;2023-04-19T03:21:34;101638.19;;;8.91;55.45
43621;BME280;29213;50.770;7.298;2023-04-19T03:24:00;101706.06;;;9.28;55.33
43621;BME280;29213;50.770;7.298;2023-04-19T03:26:25;101639.88;;;8.92;55.61
43621;BME280;29213;50.770;7.298;2023-04-19T03:28:51;101700.84;;;9.27;55.79
43621;BME280;29213;50.770;7.298;2023-04-19T03:31:17;101695.81;;;9.23;55.61
43621;BME280;29213;50.770;7.298;2023-04-19T03:33:42;101624.38;;;8.76;55.58
43621;BME280;29213;50.770;7.298;2023-04-19T03:36:08;101623.53;;;8.76;55.83
43621;BME280;29213;50.770;7.298;2023-04-19T03:38:33;101677.38;;;9.10;55.79
43621;BME280;29213;50.770;7.298;2023-04-19T03:40:58;101696.63;;;9.24;55.72
43621;BME280;29213;50.770;7.298;2023-04-19T03:43:24;101690.50;;;9.23;56.32
43621;BME280;29213;50.770;7.298;2023-04-19T03:45:49;101584.34;;;8.56;56.57
43621;BME280;29213;50.770;7.298;2023-04-19T03:48:15;101646.63;;;8.96;56.26
43621;BME280;29213;50.770;7.298;2023-04-19T03:50:40;101639.38;;;8.99;56.27
43621;BME280;29213;50.770;7.298;2023-04-19T03:53:06;101577.13;;;8.59;56.35
43621;BME280;29213;50.770;7.298;2023-04-19T03:55:31;101676.34;;;9.23;56.43
43621;BME280;29213;50.770;7.298;2023-04-19T03:57:56;101599.16;;;8.70;56.57
43621;BME280;29213;50.770;7.298;2023-04-19T04:00:22;101626.75;;;8.91;56.19
43621;BME280;29213;50.770;7.298;2023-04-19T04:02:47;101671.81;;;9.14;56.57
43621;BME280;29213;50.770;7.298;2023-04-19T04:05:13;101688.53;;;9.26;56.58
43621;BME280;29213;50.770;7.298;2023-04-19T04:07:39;101684.91;;;9.27;56.56
43621;BME280;29213;50.770;7.298;2023-04-19T04:10:05;101539.66;;;8.40;56.40
43621;BME280;29213;50.770;7.298;2023-04-19T04:12:30;101652.59;;;9.10;56.47
43621;BME280;29213;50.770;7.298;2023-04-19T04:14:56;101691.31;;;9.35;56.43
43621;BME280;29213;50.770;7.298;2023-04-19T04:17:21;101664.75;;;9.24;56.36
43621;BME280;29213;50.770;7.298;2023-04-19T04:19:48;101661.78;;;9.17;56.54
43621;BME280;29213;50.770;7.298;2023-04-19T04:22:15;101688.38;;;9.39;56.38
43621;BME280;29213;50.770;7.298;2023-04-19T04:24:41;101645.81;;;9.17;56.12
43621;BME280;29213;50.770;7.298;2023-04-19T04:27:07;101680.78;;;9.34;56.39
43621;BME280;29213;50.770;7.298;2023-04-19T04:29:35;101658.13;;;9.18;56.30
43621;BME280;29213;50.770;7.298;2023-04-19T04:32:01;101687.75;;;9.46;56.00
43621;BME280;29213;50.770;7.298;2023-04-19T04:34:27;101668.66;;;9.41;55.88
43621;BME280;29213;50.770;7.298;2023-04-19T04:36:52;101615.41;;;9.10;55.80
43621;BME280;29213;50.770;7.298;2023-04-19T04:39:18;101643.75;;;9.21;55.86
43621;BME280;29213;50.770;7.298;2023-04-19T04:41:43;101601.47;;;8.96;56.23
43621;BME280;29213;50.770;7.298;2023-04-19T04:44:08;101689.91;;;9.53;55.91
43621;BME280;29213;50.770;7.298;2023-04-19T04:46:34;101535.84;;;8.54;55.97
43621;BME280;29213;50.770;7.298;2023-04-19T04:49:00;101654.78;;;9.38;56.03
43621;BME280;29213;50.770;7.298;2023-04-19T04:51:25;101664.31;;;9.40;56.01
43621;BME280;29213;50.770;7.298;2023-04-19T04:53:51;101643.47;;;9.24;56.05
43621;BME280;29213;50.770;7.298;2023-04-19T04:56:16;101665.94;;;9.31;56.21
43621;BME280;29213;50.770;7.298;2023-04-19T04:58:42;101684.84;;;9.49;56.12
43621;BME280;29213;50.770;7.298;2023-04-19T05:01:07;101578.94;;;8.91;55.92
43621;BME280;29213;50.770;7.298;2023-04-19T05:03:32;101648.94;;;9.44;55.96
43621;BME280;29213;50.770;7.298;2023-04-19T05:05:58;101633.84;;;9.44;55.83
43621;BME280;29213;50.770;7.298;2023-04-19T05:08:27;101631.91;;;9.46;55.76
43621;BME280;29213;50.770;7.298;2023-04-19T05:10:52;101622.75;;;9.39;55.84
43621;BME280;29213;50.770;7.298;2023-04-19T05:13:18;101610.69;;;9.35;55.87
43621;BME280;29213;50.770;7.298;2023-04-19T05:15:43;101692.47;;;9.85;56.14
43621;BME280;29213;50.770;7.298;2023-04-19T05:18:08;101632.25;;;9.53;55.98
43621;BME280;29213;50.770;7.298;2023-04-19T05:20:34;101680.66;;;9.78;55.80
43621;BME280;29213;50.770;7.298;2023-04-19T05:22:59;101636.75;;;9.62;57.84
43621;BME280;29213;50.770;7.298;2023-04-19T05:25:27;101662.78;;;10.21;57.26
43621;BME280;29213;50.770;7.298;2023-04-19T05:27:54;101667.88;;;10.44;55.41
43621;BME280;29213;50.770;7.298;2023-04-19T05:30:19;101663.53;;;10.43;54.82
43621;BME280;29213;50.770;7.298;2023-04-19T05:32:45;101679.69;;;10.51;54.42
43621;BME280;29213;50.770;7.298;2023-04-19T05:35:11;101683.34;;;10.50;54.13
43621;BME280;29213;50.770;7.298;2023-04-19T05:37:37;101629.16;;;10.20;54.50
43621;BME280;29213;50.770;7.298;2023-04-19T05:40:03;101681.94;;;10.46;54.35
43621;BME280;29213;50.770;7.298;2023-04-19T05:42:30;101629.00;;;10.12;54.14
43621;BME280;29213;50.770;7.298;2023-04-19T05:44:55;101615.19;;;9.97;54.62
43621;BME280;29213;50.770;7.298;2023-04-19T05:47:21;101670.28;;;10.37;54.61
43621;BME280;29213;50.770;7.298;2023-04-19T05:49:46;101636.00;;;10.13;54.73
43621;BME280;29213;50.770;7.298;2023-04-19T05:52:11;101634.75;;;10.17;54.24
43621;BME280;29213;50.770;7.298;2023-04-19T05:54:37;101627.72;;;10.16;54.13
43621;BME280;29213;50.770;7.298;2023-04-19T05:57:02;101640.25;;;10.25;54.11
43621;BME280;29213;50.770;7.298;2023-04-19T05:59:28;101598.28;;;9.98;54.02
43621;BME280;29213;50.770;7.298;2023-04-19T06:01:54;101622.41;;;10.16;53.88
43621;BME280;29213;50.770;7.298;2023-04-19T06:04:20;101608.25;;;10.06;53.78
43621;BME280;29213;50.770;7.298;2023-04-19T06:06:46;101559.13;;;9.79;53.86
43621;BME280;29213;50.770;7.298;2023-04-19T06:09:11;101670.41;;;10.46;53.92
43621;BME280;29213;50.770;7.298;2023-04-19T06:11:37;101623.69;;;10.22;54.18
43621;BME280;29213;50.770;7.298;2023-04-19T06:14:03;101657.94;;;10.36;53.89
43621;BME280;29213;50.770;7.298;2023-04-19T06:16:29;101644.00;;;10.23;53.88
43621;BME280;29213;50.770;7.298;2023-04-19T06:18:55;101602.75;;;9.97;53.50
43621;BME280;29213;50.770;7.298;2023-04-19T06:21:21;101588.56;;;9.87;53.73
43621;BME280;29213;50.770;7.298;2023-04-19T06:23:46;101644.44;;;10.18;53.82
43621;BME280;29213;50.770;7.298;2023-04-19T06:26:11;101600.59;;;9.81;53.59
43621;BME280;29213;50.770;7.298;2023-04-19T06:28:37;101635.56;;;10.08;53.61
43621;BME280;29213;50.770;7.298;2023-04-19T06:31:03;101676.72;;;10.35;53.34
43621;BME280;29213;50.770;7.298;2023-04-19T06:33:29;101649.75;;;10.18;53.26
43621;BME280;29213;50.770;7.298;2023-04-19T06:35:55;101630.25;;;10.08;52.63
43621;BME280;29213;50.770;7.298;2023-04-19T06:38:20;101578.75;;;9.78;52.67
43621;BME280;29213;50.770;7.298;2023-04-19T06:40:46;101660.97;;;10.22;52.41
43621;BME280;29213;50.770;7.298;2023-04-19T06:43:11;101605.94;;;9.91;52.50
43621;BME280;29213;50.770;7.298;2023-04-19T06:45:36;101633.34;;;10.13;51.96
43621;BME280;29213;50.770;7.298;2023-04-19T06:48:02;101584.22;;;9.86;51.99
43621;BME280;29213;50.770;7.298;2023-04-19T06:50:27;101589.97;;;9.91;52.10
43621;BME280;29213;50.770;7.298;2023-04-19T06:52:54;101617.81;;;10.18;51.76
43621;BME280;29213;50.770;7.298;2023-04-19T06:55:19;101636.03;;;10.33;51.86
43621;BME280;29213;50.770;7.298;2023-04-19T06:57:45;101637.34;;;10.38;51.77
43621;BME280;29213;50.770;7.298;2023-04-19T07:00:11;101658.09;;;10.54;51.62
43621;BME280;29213;50.770;7.298;2023-04-19T07:02:38;101600.16;;;10.27;51.56
43621;BME280;29213;50.770;7.298;2023-04-19T07:05:03;101657.41;;;10.72;51.55
43621;BME280;29213;50.770;7.298;2023-04-19T07:07:29;101587.28;;;10.32;51.32
43621;BME280;29213;50.770;7.298;2023-04-19T07:09:54;101593.88;;;10.38;51.22
43621;BME280;29213;50.770;7.298;2023-04-19T07:12:20;101661.41;;;10.88;51.25
43621;BME280;29213;50.770;7.298;2023-04-19T07:14:45;101627.75;;;10.77;50.42
43621;BME280;29213;50.770;7.298;2023-04-19T07:17:10;101588.59;;;10.57;50.50
43621;BME280;29213;50.770;7.298;2023-04-19T07:19:38;101619.63;;;10.78;50.22
43621;BME280;29213;50.770;7.298;2023-04-19T07:22:03;101560.81;;;10.50;49.98
43621;BME280;29213;50.770;7.298;2023-04-19T07:24:30;101642.63;;;11.09;50.14
43621;BME280;29213;50.770;7.298;2023-04-19T07:26:56;101614.28;;;10.98;49.79
43621;BME280;29213;50.770;7.298;2023-04-19T07:29:21;101571.63;;;10.88;49.60
43621;BME280;29213;50.770;7.298;2023-04-19T07:31:47;101635.38;;;11.49;49.37
43621;BME280;29213;50.770;7.298;2023-04-19T07:34:12;101618.94;;;11.54;49.27
43621;BME280;29213;50.770;7.298;2023-04-19T07:36:38;101628.69;;;11.83;48.96
43621;BME280;29213;50.770;7.298;2023-04-19T07:39:03;101620.22;;;11.87;48.26
43621;BME280;29213;50.770;7.298;2023-04-19T07:41:32;101630.28;;;12.03;47.70
43621;BME280;29213;50.770;7.298;2023-04-19T07:43:57;101582.78;;;11.79;47.04
43621;BME280;29213;50.770;7.298;2023-04-19T07:46:22;101572.25;;;11.77;47.19
43621;BME280;29213;50.770;7.298;2023-04-19T07:48:48;101627.41;;;12.25;47.43
43621;BME280;29213;50.770;7.298;2023-04-19T07:51:14;101628.84;;;12.37;46.78
43621;BME280;29213;50.770;7.298;2023-04-19T07:53:48;101595.56;;;12.32;45.61
43621;BME280;29213;50.770;7.298;2023-04-19T07:56:13;101594.41;;;12.34;45.96
43621;BME280;29213;50.770;7.298;2023-04-19T07:58:39;101529.34;;;11.89;45.57
43621;BME280;29213;50.770;7.298;2023-04-19T08:01:05;101545.03;;;12.02;45.86
43621;BME280;29213;50.770;7.298;2023-04-19T08:03:32;101619.34;;;12.53;45.28
43621;BME280;29213;50.770;7.298;2023-04-19T08:06:00;101617.34;;;12.73;45.00
43621;BME280;29213;50.770;7.298;2023-04-19T08:08:26;101601.31;;;12.73;44.29
43621;BME280;29213;50.770;7.298;2023-04-19T08:10:52;101577.13;;;12.75;44.20
43621;BME280;29213;50.770;7.298;2023-04-19T08:13:19;101625.00;;;13.04;43.06
43621;BME280;29213;50.770;7.298;2023-04-19T08:15:45;101580.91;;;12.90;43.22
43621;BME280;29213;50.770;7.298;2023-04-19T08:18:10;101600.41;;;13.27;42.72
43621;BME280;29213;50.770;7.298;2023-04-19T08:20:35;101608.34;;;13.37;41.68
43621;BME280;29213;50.770;7.298;2023-04-19T08:23:01;101536.94;;;13.03;41.73
43621;BME280;29213;50.770;7.298;2023-04-19T08:25:27;101508.91;;;12.89;40.88
43621;BME280;29213;50.770;7.298;2023-04-19T08:27:55;101600.25;;;13.55;41.60
43621;BME280;29213;50.770;7.298;2023-04-19T08:30:21;101519.28;;;13.18;41.42
43621;BME280;29213;50.770;7.298;2023-04-19T08:32:47;101569.69;;;13.66;40.86
43621;BME280;29213;50.770;7.298;2023-04-19T08:35:14;101600.59;;;13.95;40.59
43621;BME280;29213;50.770;7.298;2023-04-19T08:37:39;101581.84;;;13.95;40.75
43621;BME280;29213;50.770;7.298;2023-04-19T08:40:05;101573.00;;;14.03;40.16
43621;BME280;29213;50.770;7.298;2023-04-19T08:42:31;101597.22;;;14.28;39.73
43621;BME280;29213;50.770;7.298;2023-04-19T08:45:00;101593.41;;;14.39;40.09
43621;BME280;29213;50.770;7.298;2023-04-19T08:47:27;101587.69;;;14.34;39.24
43621;BME280;29213;50.770;7.298;2023-04-19T08:49:54;101540.94;;;14.20;39.11
43621;BME280;29213;50.770;7.298;2023-04-19T08:52:20;101538.44;;;14.26;39.32
43621;BME280;29213;50.770;7.298;2023-04-19T08:54:45;101585.22;;;14.65;39.06
43621;BME280;29213;50.770;7.298;2023-04-19T08:57:11;101581.53;;;14.83;39.50
43621;BME280;29213;50.770;7.298;2023-04-19T08:59:36;101559.25;;;14.74;37.84
43621;BME280;29213;50.770;7.298;2023-04-19T09:02:02;101581.19;;;15.03;40.76
43621;BME280;29213;50.770;7.298;2023-04-19T09:04:27;101528.91;;;15.07;40.63
43621;BME280;29213;50.770;7.298;2023-04-19T09:06:53;101527.00;;;15.32;38.53
43621;BME280;29213;50.770;7.298;2023-04-19T09:09:21;101571.50;;;15.67;37.45
43621;BME280;29213;50.770;7.298;2023-04-19T09:11:47;101440.72;;;14.95;35.42
43621;BME280;29213;50.770;7.298;2023-04-19T09:14:16;101562.69;;;15.81;37.33
43621;BME280;29213;50.770;7.298;2023-04-19T09:16:42;101563.63;;;16.05;37.13
43621;BME280;29213;50.770;7.298;2023-04-19T09:19:08;101501.53;;;15.92;36.94
43621;BME280;29213;50.770;7.298;2023-04-19T09:21:34;101558.38;;;16.12;34.20
43621;BME280;29213;50.770;7.298;2023-04-19T09:24:00;101555.28;;;16.23;35.06
43621;BME280;29213;50.770;7.298;2023-04-19T09:26:26;101557.06;;;16.31;34.32
43621;BME280;29213;50.770;7.298;2023-04-19T09:29:06;101422.59;;;15.46;33.67
43621;BME280;29213;50.770;7.298;2023-04-19T09:31:34;101555.53;;;16.37;33.05
43621;BME280;29213;50.770;7.298;2023-04-19T09:34:14;101553.31;;;16.40;33.26
43621;BME280;29213;50.770;7.298;2023-04-19T09:36:40;101537.53;;;16.37;33.43
43621;BME280;29213;50.770;7.298;2023-04-19T09:39:06;101555.06;;;16.72;33.43
43621;BME280;29213;50.770;7.298;2023-04-19T09:41:31;101433.22;;;16.18;32.87
43621;BME280;29213;50.770;7.298;2023-04-19T09:44:11;101549.81;;;17.17;32.47
43621;BME280;29213;50.770;7.298;2023-04-19T09:46:40;101494.22;;;17.09;33.11
43621;BME280;29213;50.770;7.298;2023-04-19T09:51:42;101528.44;;;17.60;32.47
43621;BME280;29213;50.770;7.298;2023-04-19T09:54:09;101496.03;;;17.54;31.80
43621;BME280;29213;50.770;7.298;2023-04-19T09:56:35;101525.66;;;17.84;32.50
43621;BME280;29213;50.770;7.298;2023-04-19T09:59:05;101474.44;;;17.69;31.53
43621;BME280;29213;50.770;7.298;2023-04-19T10:01:37;101480.06;;;17.67;31.08
43621;BME280;29213;50.770;7.298;2023-04-19T10:04:06;101513.63;;;18.01;30.72
43621;BME280;29213;50.770;7.298;2023-04-19T10:06:34;101445.69;;;17.69;30.75
43621;BME280;29213;50.770;7.298;2023-04-19T10:09:01;101450.09;;;17.92;31.58
43621;BME280;29213;50.770;7.298;2023-04-19T10:11:33;101507.06;;;18.54;30.84
43621;BME280;29213;50.770;7.298;2023-04-19T10:14:09;101484.16;;;18.50;30.09
43621;BME280;29213;50.770;7.298;2023-04-19T10:16:36;101414.78;;;18.09;29.66
43621;BME280;29213;50.770;7.298;2023-04-19T10:19:04;101394.34;;;17.93;29.77
43621;BME280;29213;50.770;7.298;2023-04-19T10:21:31;101464.94;;;18.32;29.31
43621;BME280;29213;50.770;7.298;2023-04-19T10:23:57;101470.00;;;18.41;29.39
43621;BME280;29213;50.770;7.298;2023-04-19T10:26:23;101468.22;;;18.49;29.94
43621;BME280;29213;50.770;7.298;2023-04-19T10:28:49;101452.75;;;18.64;29.51
43621;BME280;29213;50.770;7.298;2023-04-19T10:31:14;101431.47;;;18.19;28.90
43621;BME280;29213;50.770;7.298;2023-04-19T10:33:46;101429.41;;;17.99;28.80
43621;BME280;29213;50.770;7.298;2023-04-19T10:36:13;101419.06;;;17.59;27.76
43621;BME280;29213;50.770;7.298;2023-04-19T10:38:46;101453.03;;;17.08;27.36
43621;BME280;29213;50.770;7.298;2023-04-19T10:41:13;101466.09;;;17.42;27.96
43621;BME280;29213;50.770;7.298;2023-04-19T10:43:42;101405.88;;;16.98;27.07
43621;BME280;29213;50.770;7.298;2023-04-19T10:46:14;101476.78;;;16.90;25.81
43621;BME280;29213;50.770;7.298;2023-04-19T10:48:50;101355.13;;;16.19;26.27
43621;BME280;29213;50.770;7.298;2023-04-19T10:51:32;101475.22;;;16.95;26.53
43621;BME280;29213;50.770;7.298;2023-04-19T10:54:03;101467.78;;;16.59;26.25
43621;BME280;29213;50.770;7.298;2023-04-19T11:01:43;101462.38;;;17.13;26.15
43621;BME280;29213;50.770;7.298;2023-04-19T11:04:13;101456.91;;;17.36;25.18
43621;BME280;29213;50.770;7.298;2023-04-19T11:09:31;101391.38;;;17.14;25.30
43621;BME280;29213;50.770;7.298;2023-04-19T11:12:06;101405.78;;;17.58;24.99
43621;BME280;29213;50.770;7.298;2023-04-19T11:14:46;101422.94;;;17.94;25.51
43621;BME280;29213;50.770;7.298;2023-04-19T11:17:18;101436.59;;;17.92;23.77
43621;BME280;29213;50.770;7.298;2023-04-19T11:19:51;101436.38;;;17.35;24.14
43621;BME280;29213;50.770;7.298;2023-04-19T11:22:17;101402.25;;;17.20;24.38
43621;BME280;29213;50.770;7.298;2023-04-19T11:24:45;101354.94;;;17.48;25.22
43621;BME280;29213;50.770;7.298;2023-04-19T11:27:14;101411.94;;;18.17;25.18
43621;BME280;29213;50.770;7.298;2023-04-19T11:29:39;101310.06;;;18.06;25.33
43621;BME280;29213;50.770;7.298;2023-04-19T11:32:05;101396.13;;;19.06;25.66
43621;BME280;29213;50.770;7.298;2023-04-19T11:34:40;101421.03;;;19.51;25.23
43621;BME280;29213;50.770;7.298;2023-04-19T11:37:05;101329.28;;;19.15;25.42
43621;BME280;29213;50.770;7.298;2023-04-19T11:39:31;101417.13;;;19.73;24.75
43621;BME280;29213;50.770;7.298;2023-04-19T11:41:57;101397.50;;;19.38;25.80
43621;BME280;29213;50.770;7.298;2023-04-19T11:44:23;101418.53;;;19.49;25.61
43621;BME280;29213;50.770;7.298;2023-04-19T11:46:59;101410.44;;;19.56;25.14
43621;BME280;29213;50.770;7.298;2023-04-19T11:49:30;101348.50;;;19.41;25.01
43621;BME280;29213;50.770;7.298;2023-04-19T11:52:01;101356.16;;;19.37;24.58
43621;BME280;29213;50.770;7.298;2023-04-19T11:54:27;101340.09;;;19.22;24.64
43621;BME280;29213;50.770;7.298;2023-04-19T11:56:56;101413.41;;;19.81;24.94
43621;BME280;29213;50.770;7.298;2023-04-19T11:59:22;101325.00;;;19.34;24.03
43621;BME280;29213;50.770;7.298;2023-04-19T12:01:47;101365.16;;;19.65;23.83
43621;BME280;29213;50.770;7.298;2023-04-19T12:04:13;101341.03;;;19.56;22.94
43621;BME280;29213;50.770;7.298;2023-04-19T12:06:38;101362.47;;;19.71;22.41
43621;BME280;29213;50.770;7.298;2023-04-19T12:09:06;101366.38;;;19.55;22.92
43621;BME280;29213;50.770;7.298;2023-04-19T12:11:51;101401.34;;;19.91;23.74
43621;BME280;29213;50.770;7.298;2023-04-19T12:14:18;101319.00;;;19.39;23.15
43621;BME280;29213;50.770;7.298;2023-04-19T12:17:01;101367.03;;;19.84;23.30
43621;BME280;29213;50.770;7.298;2023-04-19T12:19:27;101377.69;;;20.20;23.12
43621;BME280;29213;50.770;7.298;2023-04-19T12:21:52;101354.94;;;20.48;22.80
43621;BME280;29213;50.770;7.298;2023-04-19T12:24:17;101265.38;;;19.97;21.63
43621;BME280;29213;50.770;7.298;2023-04-19T12:26:56;101347.03;;;20.53;21.45
43621;BME280;29213;50.770;7.298;2023-04-19T12:29:22;101383.78;;;20.88;21.22
43621;BME280;29213;50.770;7.298;2023-04-19T12:31:47;101352.94;;;20.95;21.83
43621;BME280;29213;50.770;7.298;2023-04-19T12:34:13;101322.06;;;21.03;21.27
43621;BME280;29213;50.770;7.298;2023-04-19T12:36:38;101356.53;;;21.28;21.04
43621;BME280;29213;50.770;7.298;2023-04-19T12:39:03;101386.03;;;21.43;21.12
43621;BME280;29213;50.770;7.298;2023-04-19T12:41:29;101330.06;;;21.24;21.52
43621;BME280;29213;50.770;7.298;2023-04-19T12:43:54;101244.81;;;21.01;21.14
43621;BME280;29213;50.770;7.298;2023-04-19T12:46:20;101288.91;;;21.40;19.41
43621;BME280;29213;50.770;7.298;2023-04-19T12:48:45;101236.00;;;20.73;18.73
43621;BME280;29213;50.770;7.298;2023-04-19T12:51:11;101275.53;;;20.81;18.21
43621;BME280;29213;50.770;7.298;2023-04-19T12:53:36;101231.41;;;20.74;19.40
43621;BME280;29213;50.770;7.298;2023-04-19T12:56:01;101346.97;;;21.58;19.33
43621;BME280;29213;50.770;7.298;2023-04-19T12:58:27;101361.19;;;21.79;18.19
43621;BME280;29213;50.770;7.298;2023-04-19T13:00:52;101320.13;;;21.49;17.51